Terminal Aerodrome Forecast
Issued by NWS Wakefield, VA

Home | Current Version | Previous Version | Text Only | Print | Product List | Glossary On
Versions: 1 2 3 4 5 6 7 8 9 10 11 12 13 14 15 16 17 18 19 20 21 22 23 24 25 26
000
FTUS41 KAKQ 052300
TAFORF
TAF
KORF 052340Z 0600/0624 01014G24KT P6SM -PL OVC005
      TEMPO 0600/0603 1/2SM SN FG OVC003
     FM060300 02018G30KT 4SM PLSN BR OVC005
     FM060700 02023G34KT P6SM BKN025
     FM060900 01020G32KT P6SM SCT250
     FM061800 01012G20KT P6SM SKC=

USA.gov is the U.S. government's official web portal to all federal, state and local government web resources and services.